createdAt,value
2017-05-28T00:02:11.546Z,101673
2017-05-28T00:04:41.482Z,101665
2017-05-28T00:07:10.430Z,101664
2017-05-28T00:09:39.380Z,101666
2017-05-28T00:12:08.338Z,101671
2017-05-28T00:14:37.308Z,101658
2017-05-28T00:17:06.237Z,101663
2017-05-28T00:19:35.228Z,101669
2017-05-28T00:22:04.151Z,101669
2017-05-28T00:24:33.097Z,101665
2017-05-28T00:27:02.083Z,101668
2017-05-28T00:29:31.022Z,101655
2017-05-28T00:31:59.940Z,101650
2017-05-28T00:34:28.900Z,101655
2017-05-28T00:36:57.819Z,101662
2017-05-28T00:39:26.766Z,101656
2017-05-28T00:41:55.746Z,101661
2017-05-28T00:44:24.684Z,101655
2017-05-28T00:46:53.607Z,101657
2017-05-28T00:49:22.581Z,101651
2017-05-28T00:51:51.509Z,101649
2017-05-28T00:54:20.462Z,101650
2017-05-28T00:56:49.435Z,101655
2017-05-28T00:59:18.387Z,101654
2017-05-28T01:01:47.329Z,101641
2017-05-28T01:04:16.291Z,101653
2017-05-28T01:06:45.214Z,101646
2017-05-28T01:09:14.161Z,101646
2017-05-28T01:11:43.132Z,101638
2017-05-28T01:14:12.073Z,101639
2017-05-28T01:16:40.997Z,101637
2017-05-28T01:19:09.971Z,101636
2017-05-28T01:21:38.893Z,101632
2017-05-28T01:24:07.833Z,101631
2017-05-28T01:26:36.807Z,101627
2017-05-28T01:29:05.747Z,101623
2017-05-28T01:31:34.698Z,101621
2017-05-28T01:34:03.660Z,101626
2017-05-28T01:36:32.578Z,101624
2017-05-28T01:39:01.506Z,101627
2017-05-28T01:41:30.455Z,101622
2017-05-28T01:43:59.396Z,101613
2017-05-28T01:46:28.335Z,101606
2017-05-28T01:48:57.306Z,101615
2017-05-28T01:51:26.226Z,101609
2017-05-28T01:53:55.172Z,101609
2017-05-28T01:56:24.131Z,101598
2017-05-28T01:58:53.057Z,101590
2017-05-28T02:01:21.981Z,101600
2017-05-28T02:03:50.944Z,101592
2017-05-28T02:06:19.890Z,101599
2017-05-28T02:08:48.832Z,101588
2017-05-28T02:11:17.791Z,101573
2017-05-28T02:13:46.732Z,101580
2017-05-28T02:16:15.672Z,101577
2017-05-28T02:18:44.642Z,101573
2017-05-28T02:21:13.580Z,101571
2017-05-28T02:23:42.502Z,101564
2017-05-28T02:26:11.495Z,101561
2017-05-28T02:28:40.429Z,101567
2017-05-28T02:31:09.353Z,101561
2017-05-28T02:33:38.313Z,101553
2017-05-28T02:36:07.239Z,101567
2017-05-28T02:38:36.167Z,101553
2017-05-28T02:41:05.122Z,101552
2017-05-28T02:43:34.069Z,101557
2017-05-28T02:46:03.009Z,101563
2017-05-28T02:48:31.953Z,101555
2017-05-28T02:51:00.869Z,101562
2017-05-28T02:53:29.791Z,101548
2017-05-28T02:55:58.761Z,101552
2017-05-28T02:58:27.685Z,101545
2017-05-28T03:00:56.610Z,101545
2017-05-28T03:03:25.550Z,101556
2017-05-28T03:05:54.488Z,101545
2017-05-28T03:08:23.434Z,101548
2017-05-28T03:10:52.403Z,101554
2017-05-28T03:13:21.349Z,101543
2017-05-28T03:15:50.293Z,101539
2017-05-28T03:18:19.259Z,101537
2017-05-28T03:20:48.180Z,101545
2017-05-28T03:23:17.125Z,101537
2017-05-28T03:25:46.095Z,101533
2017-05-28T03:28:15.032Z,101534
2017-05-28T03:30:43.973Z,101539
2017-05-28T03:33:12.923Z,101540
2017-05-28T03:35:41.854Z,101540
2017-05-28T03:38:10.770Z,101549
2017-05-28T03:40:39.755Z,101547
2017-05-28T03:43:08.707Z,101539
2017-05-28T03:45:37.626Z,101533
2017-05-28T03:48:06.575Z,101530
2017-05-28T03:50:35.494Z,101531
2017-05-28T03:53:04.438Z,101537
2017-05-28T03:55:33.401Z,101544
2017-05-28T03:58:02.321Z,101547
2017-05-28T04:00:31.256Z,101540
2017-05-28T04:03:00.220Z,101542
2017-05-28T04:05:29.150Z,101537
2017-05-28T04:07:58.096Z,101534
2017-05-28T04:10:27.042Z,101540
2017-05-28T04:12:55.985Z,101535
2017-05-28T04:15:24.917Z,101534
2017-05-28T04:17:53.885Z,101534
2017-05-28T04:20:22.827Z,101534
2017-05-28T04:22:51.745Z,101536
2017-05-28T04:25:20.715Z,101539
2017-05-28T04:27:49.637Z,101535
2017-05-28T04:30:18.554Z,101541
2017-05-28T04:32:47.520Z,101542
2017-05-28T04:35:16.443Z,101535
2017-05-28T04:37:45.386Z,101530
2017-05-28T04:40:14.773Z,101521
2017-05-28T04:42:43.698Z,101529
2017-05-28T04:45:12.637Z,101537
2017-05-28T04:47:41.585Z,101530
2017-05-28T04:50:10.534Z,101526
2017-05-28T04:52:39.481Z,101527
2017-05-28T04:55:08.446Z,101519
2017-05-28T04:57:37.388Z,101511
2017-05-28T05:00:06.315Z,101513
2017-05-28T05:02:35.266Z,101509
2017-05-28T05:05:04.204Z,101519
2017-05-28T05:07:33.163Z,101528
2017-05-28T05:10:02.485Z,101532
2017-05-28T05:12:31.405Z,101529
2017-05-28T05:15:00.321Z,101527
2017-05-28T05:17:29.267Z,101532
2017-05-28T05:19:58.205Z,101535
2017-05-28T05:22:27.143Z,101534
2017-05-28T05:24:56.118Z,101526
2017-05-28T05:27:25.042Z,101529
2017-05-28T05:29:53.976Z,101522
2017-05-28T05:32:22.926Z,101526
2017-05-28T05:35:00.445Z,101527
2017-05-28T05:37:30.616Z,101531
2017-05-28T05:39:59.568Z,101539
2017-05-28T05:42:28.509Z,101536
2017-05-28T05:44:57.465Z,101526
2017-05-28T05:47:26.385Z,101523
2017-05-28T05:49:55.329Z,101524
2017-05-28T05:52:24.315Z,101520
2017-05-28T05:54:53.261Z,101524
2017-05-28T05:57:22.208Z,101524
2017-05-28T05:59:51.179Z,101524
2017-05-28T06:02:20.121Z,101528
2017-05-28T06:04:49.044Z,101525
2017-05-28T06:07:19.009Z,101533
2017-05-28T06:09:47.931Z,101537
2017-05-28T06:12:16.855Z,101533
2017-05-28T06:14:45.837Z,101534
2017-05-28T06:17:14.781Z,101536
2017-05-28T06:19:43.723Z,101532
2017-05-28T06:22:12.691Z,101532
2017-05-28T06:24:41.620Z,101532
2017-05-28T06:27:10.569Z,101538
2017-05-28T06:29:39.657Z,101540
2017-05-28T06:32:09.287Z,101539
2017-05-28T06:34:38.260Z,101541
2017-05-28T06:37:12.035Z,101546
2017-05-28T06:39:43.152Z,101538
2017-05-28T06:42:12.124Z,101560
2017-05-28T06:44:41.046Z,101555
2017-05-28T06:47:09.993Z,101559
2017-05-28T06:49:38.937Z,101575
2017-05-28T06:52:07.871Z,101591
2017-05-28T06:54:36.816Z,101619
2017-05-28T06:57:05.770Z,101599
2017-05-28T06:59:34.713Z,101583
2017-05-28T07:02:03.637Z,101593
2017-05-28T07:04:32.584Z,101606
2017-05-28T07:07:01.506Z,101622
2017-05-28T07:09:30.454Z,101605
2017-05-28T07:11:59.440Z,101616
2017-05-28T07:14:28.373Z,101592
2017-05-28T07:16:57.314Z,101593
2017-05-28T07:19:26.288Z,101593
2017-05-28T07:21:55.207Z,101600
2017-05-28T07:24:24.131Z,101602
2017-05-28T07:26:53.100Z,101616
2017-05-28T07:29:22.019Z,101613
2017-05-28T07:31:50.961Z,101621
2017-05-28T07:34:19.916Z,101618
2017-05-28T07:36:48.852Z,101637
2017-05-28T07:39:17.797Z,101618
2017-05-28T07:41:46.752Z,101617
2017-05-28T07:44:15.713Z,101613
2017-05-28T07:46:44.657Z,101613
2017-05-28T07:49:13.642Z,101623
2017-05-28T07:51:42.589Z,101613
2017-05-28T07:54:11.528Z,101602
2017-05-28T07:56:40.485Z,101606
2017-05-28T07:59:09.406Z,101607
2017-05-28T08:01:38.332Z,101596
2017-05-28T08:04:07.307Z,101595
2017-05-28T08:06:36.253Z,101601
2017-05-28T08:09:05.178Z,101612
2017-05-28T08:11:34.144Z,101609
2017-05-28T08:14:03.089Z,101620
2017-05-28T08:16:32.038Z,101627
2017-05-28T08:19:01.015Z,101625
2017-05-28T08:21:29.953Z,101614
2017-05-28T08:23:58.901Z,101607
2017-05-28T08:26:27.874Z,101609
2017-05-28T08:28:56.844Z,101591
2017-05-28T08:31:25.786Z,101591
2017-05-28T08:33:54.762Z,101578
2017-05-28T08:36:23.688Z,101566
2017-05-28T08:38:52.607Z,101557
2017-05-28T08:41:21.565Z,101554
2017-05-28T08:43:50.481Z,101544
2017-05-28T08:46:19.420Z,101537
2017-05-28T08:48:48.369Z,101526
2017-05-28T08:51:17.301Z,101518
2017-05-28T08:53:46.225Z,101521
2017-05-28T08:56:15.211Z,101520
2017-05-28T08:58:44.139Z,101522
2017-05-28T09:01:13.092Z,101539
2017-05-28T09:06:18.883Z,101537
2017-05-28T09:08:47.870Z,101540
2017-05-28T09:11:16.843Z,101536
2017-05-28T09:13:45.817Z,101542
2017-05-28T09:16:14.820Z,101536
2017-05-28T09:18:43.806Z,101534
2017-05-28T09:21:12.785Z,101523
2017-05-28T09:23:41.732Z,101522
2017-05-28T09:26:10.662Z,101523
2017-05-28T09:28:39.618Z,101535
2017-05-28T09:31:08.554Z,101538
2017-05-28T09:33:37.496Z,101543
2017-05-28T09:36:06.469Z,101535
2017-05-28T09:38:35.412Z,101532
2017-05-28T09:41:04.362Z,101519
2017-05-28T09:43:33.314Z,101514
2017-05-28T09:46:02.233Z,101514
2017-05-28T09:48:32.088Z,101514
2017-05-28T09:51:01.139Z,101506
2017-05-28T09:53:30.139Z,101519
2017-05-28T09:55:59.086Z,101526
2017-05-28T09:58:28.034Z,101518
2017-05-28T10:00:56.965Z,101527
2017-05-28T10:03:25.910Z,101526
2017-05-28T10:05:54.859Z,101532
2017-05-28T10:08:23.779Z,101523
2017-05-28T10:10:52.711Z,101525
2017-05-28T10:13:21.695Z,101546
2017-05-28T10:15:50.624Z,101532
2017-05-28T10:18:19.551Z,101542
2017-05-28T10:20:48.521Z,101551
2017-05-28T10:23:17.462Z,101550
2017-05-28T10:25:46.390Z,101563
2017-05-28T10:28:15.342Z,101555
2017-05-28T10:30:44.286Z,101552
2017-05-28T10:33:13.257Z,101544
2017-05-28T10:35:42.224Z,101545
2017-05-28T10:38:11.169Z,101556
2017-05-28T10:40:40.095Z,101553
2017-05-28T10:43:09.067Z,101551
2017-05-28T10:45:38.007Z,101547
2017-05-28T10:48:06.929Z,101538
2017-05-28T10:50:35.903Z,101537
2017-05-28T10:53:04.853Z,101529
2017-05-28T10:55:33.774Z,101545
2017-05-28T10:58:02.732Z,101533
2017-05-28T11:00:31.675Z,101534
2017-05-28T11:03:00.598Z,101522
2017-05-28T11:05:29.546Z,101523
2017-05-28T11:07:58.468Z,101523
2017-05-28T11:10:27.413Z,101525
2017-05-28T11:12:56.387Z,101528
2017-05-28T11:15:25.329Z,101534
2017-05-28T11:17:54.281Z,101532
2017-05-28T11:20:23.254Z,101551
2017-05-28T11:23:02.102Z,101540
2017-05-28T11:25:31.047Z,101541
2017-05-28T11:27:59.981Z,101547
2017-05-28T11:30:28.919Z,101534
2017-05-28T11:32:57.870Z,101541
2017-05-28T11:35:26.813Z,101543
2017-05-28T11:37:55.740Z,101537
2017-05-28T11:40:24.693Z,101536
2017-05-28T11:42:53.619Z,101534
2017-05-28T11:45:22.561Z,101544
2017-05-28T11:47:51.511Z,101537
2017-05-28T11:50:20.439Z,101526
2017-05-28T11:52:49.364Z,101530
2017-05-28T11:55:18.343Z,101524
2017-05-28T11:57:47.268Z,101520
2017-05-28T12:00:16.281Z,101527
2017-05-28T12:02:45.261Z,101515
2017-05-28T12:05:14.220Z,101516
2017-05-28T12:07:43.156Z,101529
2017-05-28T12:10:12.110Z,101519
2017-05-28T12:12:41.038Z,101517
2017-05-28T12:15:09.971Z,101522
2017-05-28T12:17:38.928Z,101529
2017-05-28T12:20:07.851Z,101528
2017-05-28T12:22:36.793Z,101519
2017-05-28T12:25:05.795Z,101522
2017-05-28T12:27:34.734Z,101519
2017-05-28T12:30:03.677Z,101514
2017-05-28T12:32:32.657Z,101511
2017-05-28T12:35:01.606Z,101519
2017-05-28T12:37:30.559Z,101502
2017-05-28T12:39:59.538Z,101502
2017-05-28T12:42:28.467Z,101511
2017-05-28T12:44:57.405Z,101514
2017-05-28T12:47:26.357Z,101512
2017-05-28T12:49:55.279Z,101510
2017-05-28T12:52:24.211Z,101505
2017-05-28T12:54:53.619Z,101501
2017-05-28T12:57:22.569Z,101500
2017-05-28T12:59:51.501Z,101498
2017-05-28T13:02:20.480Z,101507
2017-05-28T13:04:49.427Z,101495
2017-05-28T13:07:18.358Z,101494
2017-05-28T13:09:47.337Z,101495
2017-05-28T13:12:16.263Z,101490
2017-05-28T13:14:45.183Z,101489
2017-05-28T13:17:14.155Z,101490
2017-05-28T13:19:43.093Z,101494
2017-05-28T13:22:12.033Z,101496
2017-05-28T13:24:41.002Z,101498
2017-05-28T13:27:09.925Z,101491
2017-05-28T13:29:38.846Z,101487
2017-05-28T13:32:07.824Z,101483
2017-05-28T13:34:36.772Z,101493
2017-05-28T13:37:05.711Z,101481
2017-05-28T13:39:34.687Z,101486
2017-05-28T13:42:03.615Z,101489
2017-05-28T13:44:32.559Z,101482
2017-05-28T13:47:01.534Z,101486
2017-05-28T13:49:30.474Z,101482
2017-05-28T13:51:59.415Z,101473
2017-05-28T13:54:28.394Z,101473
2017-05-28T13:56:57.340Z,101464
2017-05-28T13:59:26.285Z,101472
2017-05-28T14:01:55.260Z,101475
2017-05-28T14:04:24.186Z,101478
2017-05-28T14:06:53.128Z,101465
2017-05-28T14:09:22.097Z,101464
2017-05-28T14:11:51.023Z,101468
2017-05-28T14:14:19.970Z,101475
2017-05-28T14:16:48.944Z,101470
2017-05-28T14:19:17.871Z,101470
2017-05-28T14:21:46.799Z,101467
2017-05-28T14:24:15.773Z,101467
2017-05-28T14:26:44.705Z,101462
2017-05-28T14:29:13.661Z,101464
2017-05-28T14:31:42.645Z,101455
2017-05-28T14:34:11.595Z,101465
2017-05-28T14:36:40.509Z,101449
2017-05-28T14:39:09.485Z,101461
2017-05-28T14:41:38.430Z,101455
2017-05-28T14:44:07.384Z,101457
2017-05-28T14:46:36.393Z,101453
2017-05-28T14:49:05.322Z,101446
2017-05-28T14:51:34.254Z,101448
2017-05-28T14:54:03.240Z,101450
2017-05-28T14:56:37.986Z,101449
2017-05-28T14:59:06.949Z,101445
2017-05-28T15:01:35.878Z,101449
2017-05-28T15:04:04.808Z,101446
2017-05-28T15:06:33.773Z,101452
2017-05-28T15:09:02.711Z,101455
2017-05-28T15:11:31.658Z,101462
2017-05-28T15:14:00.615Z,101460
2017-05-28T15:16:29.564Z,101458
2017-05-28T15:18:58.513Z,101464
2017-05-28T15:21:27.476Z,101462
2017-05-28T15:23:56.434Z,101462
2017-05-28T15:26:25.362Z,101473
2017-05-28T15:28:54.336Z,101467
2017-05-28T15:31:23.281Z,101464
2017-05-28T15:33:52.227Z,101469
2017-05-28T15:36:21.206Z,101461
2017-05-28T15:38:50.162Z,101459
2017-05-28T15:41:19.105Z,101457
2017-05-28T15:43:48.065Z,101459
2017-05-28T15:46:17.046Z,101465
2017-05-28T15:48:46.009Z,101457
2017-05-28T15:51:14.966Z,101465
2017-05-28T15:53:43.921Z,101449
2017-05-28T15:56:12.842Z,101458
2017-05-28T15:58:41.816Z,101459
2017-05-28T16:01:10.814Z,101459
2017-05-28T16:03:39.737Z,101458
2017-05-28T16:06:08.712Z,101455
2017-05-28T16:08:37.665Z,101450
2017-05-28T16:11:06.597Z,101449
2017-05-28T16:13:35.574Z,101447
2017-05-28T16:16:04.526Z,101454
2017-05-28T16:18:33.456Z,101452
2017-05-28T16:21:02.411Z,101447
2017-05-28T16:23:31.346Z,101452
2017-05-28T16:26:00.272Z,101446
2017-05-28T16:28:29.225Z,101449
2017-05-28T16:30:58.168Z,101451
2017-05-28T16:33:27.119Z,101449
2017-05-28T16:36:01.875Z,101456
2017-05-28T16:38:30.816Z,101457
2017-05-28T16:40:59.743Z,101459
2017-05-28T16:43:28.698Z,101456
2017-05-28T16:45:57.627Z,101463
2017-05-28T16:48:26.576Z,101465
2017-05-28T16:50:55.534Z,101465
2017-05-28T16:53:24.473Z,101456
2017-05-28T16:55:53.402Z,101466
2017-05-28T16:58:22.356Z,101471
2017-05-28T17:00:51.283Z,101476
2017-05-28T17:03:20.210Z,101466
2017-05-28T17:05:49.186Z,101472
2017-05-28T17:08:18.126Z,101467
2017-05-28T17:10:47.055Z,101473
2017-05-28T17:13:16.029Z,101476
2017-05-28T17:15:44.969Z,101477
2017-05-28T17:18:13.930Z,101470
2017-05-28T17:20:42.897Z,101472
2017-05-28T17:23:11.836Z,101475
2017-05-28T17:25:40.758Z,101474
2017-05-28T17:28:09.725Z,101489
2017-05-28T17:30:38.674Z,101479
2017-05-28T17:33:07.618Z,101492
2017-05-28T17:35:36.570Z,101484
2017-05-28T17:38:05.513Z,101489
2017-05-28T17:40:34.457Z,101488
2017-05-28T17:43:03.424Z,101479
2017-05-28T17:45:32.343Z,101479
2017-05-28T17:48:01.256Z,101485
2017-05-28T17:50:30.223Z,101485
2017-05-28T17:52:59.153Z,101491
2017-05-28T17:55:28.078Z,101481
2017-05-28T17:57:57.080Z,101491
2017-05-28T18:00:26.029Z,101489
2017-05-28T18:02:54.969Z,101491
2017-05-28T18:05:23.943Z,101491
2017-05-28T18:07:52.868Z,101487
2017-05-28T18:10:21.788Z,101490
2017-05-28T18:12:50.757Z,101488
2017-05-28T18:15:19.678Z,101489
2017-05-28T18:17:48.602Z,101485
2017-05-28T18:20:17.558Z,101486
2017-05-28T18:22:46.483Z,101490
2017-05-28T18:25:15.429Z,101489
2017-05-28T18:27:44.406Z,101483
2017-05-28T18:30:13.322Z,101490
2017-05-28T18:32:42.254Z,101483
2017-05-28T18:35:11.232Z,101487
2017-05-28T18:37:40.158Z,101492
2017-05-28T18:40:09.100Z,101495
2017-05-28T18:42:38.059Z,101496
2017-05-28T18:45:06.979Z,101490
2017-05-28T18:47:35.902Z,101500
2017-05-28T18:50:04.872Z,101497
2017-05-28T18:52:33.794Z,101494
2017-05-28T18:55:02.738Z,101498
2017-05-28T18:57:31.725Z,101506
2017-05-28T19:00:00.653Z,101500
2017-05-28T19:02:29.597Z,101507
2017-05-28T19:04:58.573Z,101514
2017-05-28T19:07:27.520Z,101511
2017-05-28T19:09:56.447Z,101512
2017-05-28T19:12:25.426Z,101509
2017-05-28T19:14:54.404Z,101513
2017-05-28T19:17:23.345Z,101509
2017-05-28T19:19:52.292Z,101512
2017-05-28T19:22:21.212Z,101519
2017-05-28T19:24:50.982Z,101516
2017-05-28T19:27:19.936Z,101516
2017-05-28T19:29:48.898Z,101509
2017-05-28T19:32:17.829Z,101518
2017-05-28T19:34:46.781Z,101515
2017-05-28T19:37:15.702Z,101522
2017-05-28T19:39:44.724Z,101520
2017-05-28T19:42:13.678Z,101525
2017-05-28T19:44:42.599Z,101519
2017-05-28T19:47:11.545Z,101522
2017-05-28T19:49:40.490Z,101522
2017-05-28T19:52:09.445Z,101516
2017-05-28T19:54:38.372Z,101529
2017-05-28T19:57:07.345Z,101523
2017-05-28T19:59:36.276Z,101520
2017-05-28T20:02:05.205Z,101517
2017-05-28T20:04:34.182Z,101521
2017-05-28T20:07:03.129Z,101525
2017-05-28T20:09:32.063Z,101517
2017-05-28T20:12:01.038Z,101524
2017-05-28T20:14:29.979Z,101526
2017-05-28T20:16:59.825Z,101524
2017-05-28T20:19:28.782Z,101524
2017-05-28T20:21:57.729Z,101528
2017-05-28T20:24:26.664Z,101511
2017-05-28T20:26:55.686Z,101511
2017-05-28T20:29:24.641Z,101515
2017-05-28T20:31:53.564Z,101515
2017-05-28T20:34:22.516Z,101518
2017-05-28T20:36:51.444Z,101519
2017-05-28T20:39:20.365Z,101518
2017-05-28T20:41:49.310Z,101511
2017-05-28T20:44:18.254Z,101514
2017-05-28T20:46:47.195Z,101507
2017-05-28T20:49:16.166Z,101501
2017-05-28T20:51:45.107Z,101498
2017-05-28T20:54:14.050Z,101496
2017-05-28T20:56:43.062Z,101504
2017-05-28T20:59:12.016Z,101496
2017-05-28T21:01:41.006Z,101502
2017-05-28T21:04:09.981Z,101495
2017-05-28T21:06:39.461Z,101497
2017-05-28T21:09:08.384Z,101505
2017-05-28T21:11:37.335Z,101496
2017-05-28T21:14:06.255Z,101493
2017-05-28T21:16:35.197Z,101500
2017-05-28T21:19:04.146Z,101500
2017-05-28T21:21:33.094Z,101494
2017-05-28T21:24:02.017Z,101490
2017-05-28T21:26:31.013Z,101485
2017-05-28T21:28:59.934Z,101492
2017-05-28T21:31:28.873Z,101492
2017-05-28T21:33:57.827Z,101493
2017-05-28T21:36:26.757Z,101491
2017-05-28T21:38:55.678Z,101495
2017-05-28T21:41:24.711Z,101494
2017-05-28T21:43:53.689Z,101499
2017-05-28T21:46:22.619Z,101494
2017-05-28T21:48:51.570Z,101498
2017-05-28T21:51:20.520Z,101493
2017-05-28T21:53:49.456Z,101494
2017-05-28T21:56:18.406Z,101487
2017-05-28T21:58:47.340Z,101479
2017-05-28T22:01:16.297Z,101481
2017-05-28T22:03:45.731Z,101483
2017-05-28T22:06:14.678Z,101485
2017-05-28T22:08:43.624Z,101489
2017-05-28T22:11:12.601Z,101487
2017-05-28T22:13:41.544Z,101489
2017-05-28T22:16:10.499Z,101485
2017-05-28T22:18:39.450Z,101487
2017-05-28T22:21:08.378Z,101488
2017-05-28T22:23:37.302Z,101481
2017-05-28T22:26:06.263Z,101468
2017-05-28T22:28:35.189Z,101476
2017-05-28T22:31:04.136Z,101484
2017-05-28T22:33:33.114Z,101466
2017-05-28T22:36:02.046Z,101464
2017-05-28T22:38:30.975Z,101449
2017-05-28T22:40:59.936Z,101453
2017-05-28T22:43:28.901Z,101455
2017-05-28T22:45:57.849Z,101464
2017-05-28T22:48:26.807Z,101461
2017-05-28T22:50:55.755Z,101460
2017-05-28T22:53:24.713Z,101461
2017-05-28T22:55:53.678Z,101456
2017-05-28T22:58:22.616Z,101456
2017-05-28T23:00:51.564Z,101448
2017-05-28T23:03:20.518Z,101455
2017-05-28T23:05:49.465Z,101451
2017-05-28T23:08:18.418Z,101445
2017-05-28T23:10:47.392Z,101440
2017-05-28T23:13:16.336Z,101440
2017-05-28T23:15:45.285Z,101439
2017-05-28T23:18:14.237Z,101443
2017-05-28T23:20:43.182Z,101438
2017-05-28T23:23:12.125Z,101435
2017-05-28T23:25:41.081Z,101427
2017-05-28T23:28:10.007Z,101431
2017-05-28T23:30:38.941Z,101436
2017-05-28T23:33:07.892Z,101429
2017-05-28T23:35:36.833Z,101425
2017-05-28T23:38:05.781Z,101430
2017-05-28T23:40:34.753Z,101421
2017-05-28T23:43:03.700Z,101425
2017-05-28T23:45:32.645Z,101416
2017-05-28T23:48:01.638Z,101421
2017-05-28T23:50:30.590Z,101412
2017-05-28T23:52:59.522Z,101419
2017-05-28T23:55:28.500Z,101408
2017-05-28T23:57:57.422Z,101409
